Nearby METAR Reports

 

KOXC - Oxford/Waterbury, Connecticut, USA
Distance from station: SE 8mi, 12km
Updated: Fri, 28-Feb-2020 1:51am EST
Overcast
Overcast
 Wind from WSW
Wind: WSW 12 mph , 19 km/h, Gust: 21 mph , 33 km/h
Temperature: 27°F , -3°C
Wind Chill: 16°F , -9°C
Dew Point: 10°F , -12°C
Humidity: 50%
Barometer: 29.73 inHg , 1006.8 hPa
Clouds: Overcast
Visibility: 10 miles , 16 km
Cloud details: Overcast 5000 ft
2020/02/28 06:51 KOXC 280651Z AUTO 25010G18KT 210V280 10SM OVC050 M03/M12 A2973 RMK AO2 PK WND 27030/0559 SLP087 T10281117 FZRANO
KDXR - Danbury, Connecticut, USA
Distance from station: SW 19mi, 30km
Updated: Fri, 28-Feb-2020 1:53am EST
Few Clouds
Few Clouds
 Wind from WSW
Wind: WSW 18 mph , 30 km/h, Gust: 28 mph , 44 km/h
Temperature: 27°F , -3°C
Wind Chill: 14°F , -10°C
Dew Point: 9°F , -13°C
Humidity: 46%
Barometer: 29.76 inHg , 1007.8 hPa
Clouds: Few Clouds
Visibility: 10 miles , 16 km
Cloud details: Few Clouds 6000 ft
2020/02/28 06:53 KDXR 280653Z AUTO 25016G24KT 10SM FEW060 M03/M13 A2976 RMK AO2 SLP081 T10281133
 
KMMK - Meriden, Connecticut, USA
Distance from station: E 20mi, 33km
Updated: Fri, 28-Feb-2020 1:53am EST
Partly cloudy
Partly cloudy
 Wind from WSW
Wind: WSW 12 mph , 19 km/h, Gust: 28 mph , 44 km/h
Temperature: 30°F , -1°C
Wind Chill: 20°F , -7°C
Dew Point: 7°F , -14°C
Humidity: 37%
Barometer: 29.76 inHg , 1007.8 hPa
Clouds: Partly cloudy
Visibility: 10 miles , 16 km
Cloud details: Partly cloudy 6500 ft
2020/02/28 06:53 KMMK 280653Z AUTO 25010G24KT 220V290 10SM SCT065 M01/M14 A2976 RMK AO2 PK WND 26028/0555 SNE01 SLP080 P0000 T10111144
KBDR - Bridgeport, Connecticut, USA
Distance from station: S 27mi, 44km
Updated: Fri, 28-Feb-2020 1:52am EST
Few Clouds
Few Clouds
 Wind from W
Wind: W 17 mph , 28 km/h, Gust: 28 mph , 44 km/h
Temperature: 30°F , -1°C
Wind Chill: 18°F , -8°C
Dew Point: 9°F , -13°C
Humidity: 40%
Barometer: 29.79 inHg , 1008.8 hPa
Clouds: Few Clouds
Visibility: 10 miles , 16 km
Cloud details: Few Clouds 6000 ft
2020/02/28 06:52 KBDR 280652Z 26015G24KT 10SM FEW060 M01/M13 A2979 RMK AO2 PK WND 27028/0638 SLP087 T10061128
 
KHVN - New Haven/Tweed, Connecticut, USA
Distance from station: SE 27mi, 44km
Updated: Fri, 28-Feb-2020 1:53am EST
Clear
Clear
 Wind from WSW
Wind: WSW 10 mph , 17 km/h, Gust: 28 mph , 44 km/h
Temperature: 32°F , 0°C
Wind Chill: 24°F , -4°C
Dew Point: 12°F , -11°C
Humidity: 44%
Barometer: 29.78 inHg , 1008.5 hPa
Clouds: Clear
Visibility: 10 miles , 16 km
2020/02/28 06:53 KHVN 280653Z AUTO 25009G24KT 10SM CLR 00/M11 A2978 RMK AO2 SLP083 T00001111
KHFD - Hartford/Brainar, Connecticut, USA
Distance from station: ENE 32mi, 52km
Updated: Fri, 28-Feb-2020 1:53am EST
Few Clouds
Few Clouds
 Wind from WSW
Wind: WSW 12 mph , 19 km/h, Gust: 29 mph , 46 km/h
Temperature: 30°F , -1°C
Wind Chill: 20°F , -7°C
Dew Point: 9°F , -13°C
Humidity: 40%
Barometer: 29.75 inHg , 1007.5 hPa
Clouds: Few Clouds
Visibility: 10 miles , 16 km
Cloud details: Few Clouds 6000 ft
2020/02/28 06:53 KHFD 280653Z AUTO 25010G25KT 10SM FEW060 M01/M13 A2975 RMK AO2 SLP072 T10111133
 
KPOU - Poughkeepsie, New York, USA
Distance from station: W 35mi, 56km
Updated: Fri, 28-Feb-2020 1:53am EST
Mostly cloudy
Mostly cloudy
 Wind from W
Wind: W 9 mph , 15 km/h, Gust: 22 mph , 35 km/h
Temperature: 28°F , -2°C
Wind Chill: 19°F , -7°C
Dew Point: 9°F , -13°C
Humidity: 43%
Barometer: 29.76 inHg , 1007.8 hPa
Clouds: Mostly cloudy
Visibility: 10 miles , 16 km
Cloud details: Few Clouds 4300 ft
Mostly cloudy 6500 ft
2020/02/28 06:53 KPOU 280653Z AUTO 26008G19KT 10SM FEW043 BKN065 M02/M13 A2976 RMK AO2 PK WND 25040/0625 SLP075 T10171128
KBDL - Windsor Locks, Connecticut, USA
Distance from station: NE 38mi, 62km
Updated: Fri, 28-Feb-2020 1:51am EST
Partly cloudy
Partly cloudy
 Wind from WSW
Wind: WSW 23 mph , 37 km/h, Gust: 31 mph , 50 km/h
Temperature: 30°F , -1°C
Wind Chill: 17°F , -8°C
Dew Point: 9°F , -13°C
Humidity: 40%
Barometer: 29.71 inHg , 1006.1 hPa
Clouds: Partly cloudy
Visibility: 10 miles , 16 km
Cloud details: Few Clouds 5500 ft
Partly cloudy 7000 ft
2020/02/28 06:51 KBDL 280651Z 25020G27KT 10SM FEW055 SCT070 M01/M13 A2971 RMK AO2 PK WND 26027/0651 SLP064 T10111133
 
KSNC - Chester, Connecticut, USA
Distance from station: ESE 39mi, 63km
Updated: Fri, 28-Feb-2020 1:55am EST
Partly cloudy
Partly cloudy
 Wind from W
Wind: W 9 mph , 15 km/h
Temperature: 28°F , -2°C
Wind Chill: 19°F , -7°C
Dew Point: 7°F , -14°C
Humidity: 40%
Barometer: 29.74 inHg , 1007.1 hPa
Clouds: Partly cloudy
Visibility: 10 miles , 16 km
Cloud details: Partly cloudy 5500 ft
2020/02/28 06:55 KSNC 280655Z AUTO 27008KT 240V310 10SM SCT055 M02/M14 A2974 RMK AO2
KHPN - White Plains, New York, USA
Distance from station: SW 42mi, 67km
Updated: Fri, 28-Feb-2020 1:56am EST
Few Clouds
Few Clouds
 Wind from W
Wind: W 9 mph , 15 km/h, Gust: 21 mph , 33 km/h
Temperature: 28°F , -2°C
Wind Chill: 19°F , -7°C
Dew Point: 9°F , -13°C
Humidity: 43%
Barometer: 29.77 inHg , 1008.1 hPa
Clouds: Few Clouds
Visibility: 10 miles , 16 km
Cloud details: Few Clouds 5000 ft
2020/02/28 06:56 KHPN 280656Z 26008G18KT 10SM FEW050 M02/M13 A2977 RMK AO2 SLP089 T10221128
 
KSWF - Newburgh/Stewart, New York, USA
Distance from station: W 45mi, 72km
Updated: Fri, 28-Feb-2020 1:45am EST
Mostly cloudy
Mostly cloudy
 Wind from W
Wind: W 21 mph , 33 km/h, Gust: 25 mph , 41 km/h
Temperature: 27°F , -3°C
Wind Chill: 13°F , -11°C
Dew Point: 14°F , -10°C
Humidity: 59%
Barometer: 29.75 inHg , 1007.5 hPa
Clouds: Mostly cloudy
Visibility: 10 miles , 16 km
Cloud details: Mostly cloudy 5000 ft
2020/02/28 06:45 KSWF 280645Z 28018G22KT 10SM BKN050 M03/M10 A2975
KBAF - Westfield, Massachusetts, USA
Distance from station: NNE 50mi, 80km
Updated: Fri, 28-Feb-2020 1:53am EST
Overcast
Overcast
 Wind from SW
Wind: SW 10 mph , 17 km/h
Temperature: 28°F , -2°C
Wind Chill: 19°F , -7°C
Dew Point: 10°F , -12°C
Humidity: 47%
Barometer: 29.70 inHg , 1005.8 hPa
Clouds: Overcast
Visibility: 10 miles , 16 km
Cloud details: Mostly cloudy 6000 ft
Overcast 7000 ft
2020/02/28 06:53 KBAF 280653Z AUTO 23009KT 10SM BKN060 OVC070 M02/M12 A2970 RMK AO2 SLP063 T10171122